Time;durP1;ratioP1;P1;durP2;ratioP2;P2;SDS_P1;SDS_P2;PMS_P1;PMS_P2;Temp;Humidity;BMP_temperature;BMP_pressure;BME280_temperature;BME280_humidity;BME280_pressure;Samples;Min_cycle;Max_cycle;Signal;HPM_P1;HPM_P2
2023/04/26 00:00:13;;;;;;;0.30;0.30;;;;;;;;;;5099836;27;92300;-64
2023/04/26 00:02:43;;;;;;;1.63;1.43;;;;;;;;;;5101765;27;92641;-64
2023/04/26 00:05:13;;;;;;;1.77;0.60;;;;;;;;;;5101558;27;94084;-64
2023/04/26 00:07:41;;;;;;;0.60;0.60;;;;;;;;;;5101953;27;93709;-64
2023/04/26 00:10:10;;;;;;;0.63;0.63;;;;;;;;;;5102756;27;92055;-65
2023/04/26 00:12:40;;;;;;;0.93;0.53;;;;;;;;;;5101895;27;92053;-65
2023/04/26 00:15:09;;;;;;;0.50;0.50;;;;;;;;;;5100389;27;94741;-65
2023/04/26 00:17:37;;;;;;;0.60;0.57;;;;;;;;;;5101221;27;94736;-64
2023/04/26 00:20:09;;;;;;;0.97;0.73;;;;;;;;;;5101618;27;91971;-64
2023/04/26 00:22:38;;;;;;;0.40;0.40;;;;;;;;;;5101994;27;92005;-64
2023/04/26 00:25:07;;;;;;;1.73;0.90;;;;;;;;;;5097050;27;94048;-64
2023/04/26 00:27:35;;;;;;;0.97;0.60;;;;;;;;;;5100806;27;93835;-64
2023/04/26 00:30:04;;;;;;;0.20;0.20;;;;;;;;;;5101840;27;92387;-64
2023/04/26 00:32:34;;;;;;;1.23;0.63;;;;;;;;;;5102360;27;92457;-64
2023/04/26 00:35:03;;;;;;;1.00;0.70;;;;;;;;;;5100776;27;94216;-64
2023/04/26 00:37:33;;;;;;;0.30;0.30;;;;;;;;;;5096863;27;93627;-64
2023/04/26 00:40:02;;;;;;;0.70;0.50;;;;;;;;;;5101135;27;92986;-64
2023/04/26 00:42:30;;;;;;;1.90;0.83;;;;;;;;;;5099937;27;92874;-65
2023/04/26 00:44:59;;;;;;;0.80;0.60;;;;;;;;;;5101060;27;92996;-64
2023/04/26 00:47:28;;;;;;;0.57;0.57;;;;;;;;;;5100860;27;92951;-65
2023/04/26 00:49:56;;;;;;;1.17;0.50;;;;;;;;;;5097323;27;92739;-64
2023/04/26 00:52:25;;;;;;;1.53;0.57;;;;;;;;;;5100655;27;92109;-64
2023/04/26 00:54:55;;;;;;;1.03;0.70;;;;;;;;;;5099981;27;94277;-65
2023/04/26 00:57:24;;;;;;;0.57;0.57;;;;;;;;;;5101336;27;93845;-64
2023/04/26 00:59:53;;;;;;;0.30;0.30;;;;;;;;;;5101234;27;92035;-64
2023/04/26 01:02:21;;;;;;;0.40;0.40;;;;;;;;;;5100460;27;92110;-64
2023/04/26 01:04:50;;;;;;;0.60;0.60;;;;;;;;;;5099901;27;95284;-64
2023/04/26 01:07:18;;;;;;;0.47;0.47;;;;;;;;;;5099807;27;95223;-64
2023/04/26 01:09:47;;;;;;;0.87;0.50;;;;;;;;;;5101053;27;92074;-64
2023/04/26 01:12:17;;;;;;;2.27;0.80;;;;;;;;;;5101043;27;92010;-64
2023/04/26 01:14:46;;;;;;;1.23;0.63;;;;;;;;;;5100484;27;93889;-64
2023/04/26 01:17:14;;;;;;;0.70;0.60;;;;;;;;;;5100291;27;97045;-64
2023/04/26 01:19:47;;;;;;;1.23;0.73;;;;;;;;;;5100924;27;92048;-64
2023/04/26 01:22:16;;;;;;;1.10;0.50;;;;;;;;;;5101111;27;91903;-64
2023/04/26 01:24:47;;;;;;;0.50;0.50;;;;;;;;;;5100270;27;94191;-64
2023/04/26 01:27:15;;;;;;;2.93;0.43;;;;;;;;;;5100611;27;93573;-64
2023/04/26 01:29:45;;;;;;;0.50;0.50;;;;;;;;;;5100278;27;93006;-65
2023/04/26 01:32:13;;;;;;;0.93;0.50;;;;;;;;;;5100706;27;92215;-64
2023/04/26 01:34:42;;;;;;;0.47;0.30;;;;;;;;;;5100113;27;94083;-64
2023/04/26 01:37:10;;;;;;;0.50;0.50;;;;;;;;;;5099896;27;93869;-64
2023/04/26 01:39:39;;;;;;;0.30;0.30;;;;;;;;;;5100762;27;92035;-65
2023/04/26 01:42:09;;;;;;;0.70;0.67;;;;;;;;;;5096290;27;93223;-64
2023/04/26 01:44:38;;;;;;;0.67;0.50;;;;;;;;;;5100124;27;93962;-64
2023/04/26 01:47:07;;;;;;;0.67;0.67;;;;;;;;;;5099824;27;93850;-64
2023/04/26 01:49:35;;;;;;;0.47;0.47;;;;;;;;;;5100524;27;92181;-64
2023/04/26 01:52:03;;;;;;;0.83;0.47;;;;;;;;;;5099784;27;92049;-65
2023/04/26 01:54:32;;;;;;;0.30;0.30;;;;;;;;;;5099443;27;95067;-65
2023/04/26 01:57:01;;;;;;;0.40;0.40;;;;;;;;;;5099976;27;94782;-64
2023/04/26 01:59:31;;;;;;;0.80;0.60;;;;;;;;;;5100323;27;92045;-64
2023/04/26 02:01:59;;;;;;;0.40;0.40;;;;;;;;;;5099619;27;92068;-64
2023/04/26 02:04:28;;;;;;;1.07;0.60;;;;;;;;;;5099460;27;94024;-64
2023/04/26 02:06:57;;;;;;;0.40;0.40;;;;;;;;;;5099210;27;93975;-64
2023/04/26 02:09:25;;;;;;;3.30;0.73;;;;;;;;;;5099869;27;92133;-64
2023/04/26 02:11:54;;;;;;;2.23;0.67;;;;;;;;;;5100285;27;92317;-64
2023/04/26 02:14:22;;;;;;;0.50;0.50;;;;;;;;;;5099521;27;94809;-64
2023/04/26 02:16:52;;;;;;;0.93;0.60;;;;;;;;;;5099592;27;93512;-64
2023/04/26 02:19:21;;;;;;;0.60;0.60;;;;;;;;;;5099725;27;92936;-65
2023/04/26 02:21:51;;;;;;;0.40;0.40;;;;;;;;;;5099715;27;92079;-64
2023/04/26 02:24:20;;;;;;;1.70;0.83;;;;;;;;;;5099170;27;93107;-64
2023/04/26 02:26:48;;;;;;;0.90;0.57;;;;;;;;;;5099033;27;93858;-64
2023/04/26 02:29:17;;;;;;;0.60;0.50;;;;;;;;;;5099888;27;91977;-64
2023/04/26 02:31:48;;;;;;;0.60;0.50;;;;;;;;;;5099757;27;91899;-65
2023/04/26 02:34:18;;;;;;;0.50;0.50;;;;;;;;;;5099080;27;94149;-64
2023/04/26 02:36:47;;;;;;;0.30;0.30;;;;;;;;;;5099434;27;94301;-64
2023/04/26 02:39:15;;;;;;;0.37;0.37;;;;;;;;;;5099515;27;92029;-64
2023/04/26 02:41:44;;;;;;;0.30;0.30;;;;;;;;;;5099145;27;92007;-64
2023/04/26 02:44:12;;;;;;;0.73;0.47;;;;;;;;;;5094759;27;95348;-64
2023/04/26 02:46:40;;;;;;;0.63;0.50;;;;;;;;;;5098979;27;94833;-64
2023/04/26 02:49:09;;;;;;;0.40;0.40;;;;;;;;;;5099826;27;92064;-64
2023/04/26 02:51:39;;;;;;;1.70;0.40;;;;;;;;;;5099407;27;93048;-64
2023/04/26 02:54:07;;;;;;;0.50;0.50;;;;;;;;;;5098858;27;94195;-64
2023/04/26 02:56:35;;;;;;;1.10;0.60;;;;;;;;;;5098688;27;94140;-64
2023/04/26 02:59:04;;;;;;;1.23;0.70;;;;;;;;;;5098995;27;92590;-64
2023/04/26 03:01:32;;;;;;;0.30;0.30;;;;;;;;;;5099573;27;91431;-64
2023/04/26 03:04:00;;;;;;;0.40;0.40;;;;;;;;;;5098655;27;93932;-64
2023/04/26 03:06:30;;;;;;;0.50;0.50;;;;;;;;;;5102280;27;94057;-64
2023/04/26 03:09:00;;;;;;;1.17;0.57;;;;;;;;;;5102349;27;92947;-64
2023/04/26 03:11:28;;;;;;;0.87;0.53;;;;;;;;;;5102330;27;92155;-64
2023/04/26 03:13:56;;;;;;;0.40;0.40;;;;;;;;;;5101946;27;94186;-64
2023/04/26 03:16:26;;;;;;;0.40;0.40;;;;;;;;;;5102225;27;93454;-65
2023/04/26 03:18:54;;;;;;;0.37;0.37;;;;;;;;;;5102966;27;92071;-65
2023/04/26 03:21:23;;;;;;;0.40;0.40;;;;;;;;;;5102409;27;92150;-64
2023/04/26 03:23:51;;;;;;;0.70;0.40;;;;;;;;;;5101980;27;93882;-64
2023/04/26 03:26:21;;;;;;;2.13;0.60;;;;;;;;;;5102832;27;93879;-65
2023/04/26 03:28:49;;;;;;;0.43;0.43;;;;;;;;;;5102940;27;92072;-65
2023/04/26 03:31:20;;;;;;;0.50;0.50;;;;;;;;;;5103056;27;92002;-65
2023/04/26 03:33:48;;;;;;;0.40;0.40;;;;;;;;;;5097871;27;95304;-65
2023/04/26 03:36:17;;;;;;;0.40;0.40;;;;;;;;;;5101654;27;94770;-65
2023/04/26 03:38:45;;;;;;;0.30;0.30;;;;;;;;;;5102694;27;92161;-64
2023/04/26 03:41:13;;;;;;;0.60;0.50;;;;;;;;;;5102122;27;92115;-64
2023/04/26 03:43:43;;;;;;;0.50;0.50;;;;;;;;;;5101637;27;94120;-65
2023/04/26 03:46:11;;;;;;;1.37;0.53;;;;;;;;;;5101645;27;94013;-64
2023/04/26 03:48:40;;;;;;;0.90;0.70;;;;;;;;;;5103169;27;92311;-64
2023/04/26 03:51:08;;;;;;;2.03;0.60;;;;;;;;;;5102634;27;91249;-64
2023/04/26 03:53:37;;;;;;;0.97;0.60;;;;;;;;;;5101722;27;94130;-64
2023/04/26 03:56:06;;;;;;;0.67;0.60;;;;;;;;;;5098625;27;92287;-64
2023/04/26 03:58:35;;;;;;;2.97;0.73;;;;;;;;;;5101874;27;93166;-64
2023/04/26 04:01:05;;;;;;;1.23;0.60;;;;;;;;;;5102099;27;92064;-64
2023/04/26 04:03:33;;;;;;;0.70;0.70;;;;;;;;;;5101841;27;94150;-64
2023/04/26 04:06:03;;;;;;;0.73;0.50;;;;;;;;;;5100771;27;93921;-64
2023/04/26 04:08:32;;;;;;;3.70;0.40;;;;;;;;;;5099607;27;92734;-66
2023/04/26 04:11:01;;;;;;;0.67;0.60;;;;;;;;;;5098309;27;92105;-64
2023/04/26 04:13:29;;;;;;;0.40;0.40;;;;;;;;;;5101737;27;94186;-64
2023/04/26 04:15:58;;;;;;;0.70;0.70;;;;;;;;;;5100778;27;93911;-64
2023/04/26 04:18:27;;;;;;;0.73;0.50;;;;;;;;;;5102001;27;93643;-64
2023/04/26 04:20:56;;;;;;;0.73;0.37;;;;;;;;;;5102033;27;92038;-64
2023/04/26 04:23:24;;;;;;;0.67;0.67;;;;;;;;;;5097007;27;93896;-64
2023/04/26 04:25:53;;;;;;;0.40;0.40;;;;;;;;;;5100844;27;94875;-64
2023/04/26 04:28:22;;;;;;;0.33;0.33;;;;;;;;;;5101811;27;92401;-64
2023/04/26 04:30:50;;;;;;;0.40;0.40;;;;;;;;;;5101089;27;93033;-64
2023/04/26 04:33:19;;;;;;;0.43;0.37;;;;;;;;;;5100945;27;94070;-64
2023/04/26 04:35:48;;;;;;;0.70;0.53;;;;;;;;;;5100131;27;93882;-64
2023/04/26 04:38:17;;;;;;;0.40;0.40;;;;;;;;;;5101840;27;92606;-64
2023/04/26 04:40:46;;;;;;;0.93;0.40;;;;;;;;;;5101581;27;91455;-64
2023/04/26 04:43:14;;;;;;;2.10;0.47;;;;;;;;;;5100725;27;94077;-64
2023/04/26 04:45:42;;;;;;;0.83;0.70;;;;;;;;;;5100979;27;93851;-64
2023/04/26 04:48:11;;;;;;;1.83;0.70;;;;;;;;;;5100688;27;93073;-64
2023/04/26 04:50:40;;;;;;;0.57;0.40;;;;;;;;;;5101411;27;92126;-64
2023/04/26 04:53:11;;;;;;;0.43;0.43;;;;;;;;;;5100423;27;94117;-64
2023/04/26 04:55:39;;;;;;;0.33;0.33;;;;;;;;;;5100698;27;93602;-64
2023/04/26 04:58:08;;;;;;;1.07;0.40;;;;;;;;;;5101043;27;92090;-64
2023/04/26 05:00:37;;;;;;;0.37;0.37;;;;;;;;;;5096322;27;92091;-64
2023/04/26 05:03:08;;;;;;;0.77;0.57;;;;;;;;;;5100311;27;94195;-64
2023/04/26 05:05:37;;;;;;;0.50;0.50;;;;;;;;;;5100690;27;93977;-64
2023/04/26 05:08:06;;;;;;;0.93;0.50;;;;;;;;;;5100495;27;93113;-64
2023/04/26 05:10:36;;;;;;;0.50;0.37;;;;;;;;;;5101083;27;92074;-64
2023/04/26 05:13:04;;;;;;;0.57;0.57;;;;;;;;;;5096197;27;96775;-64
2023/04/26 05:15:33;;;;;;;0.43;0.43;;;;;;;;;;5100378;27;94986;-64
2023/04/26 05:18:01;;;;;;;1.07;0.53;;;;;;;;;;5101004;27;92083;-65
2023/04/26 05:20:30;;;;;;;0.47;0.47;;;;;;;;;;5100684;27;92192;-64
2023/04/26 05:22:58;;;;;;;0.60;0.60;;;;;;;;;;5099835;27;93729;-64
2023/04/26 05:25:27;;;;;;;0.67;0.67;;;;;;;;;;5095981;27;94207;-64
2023/04/26 05:27:57;;;;;;;2.23;0.50;;;;;;;;;;5099507;27;91993;-64
2023/04/26 05:30:25;;;;;;;1.07;0.63;;;;;;;;;;5100629;27;91493;-64
2023/04/26 05:32:55;;;;;;;0.73;0.67;;;;;;;;;;5099193;27;94149;-64
2023/04/26 05:35:25;;;;;;;0.73;0.53;;;;;;;;;;5096878;27;93889;-64
2023/04/26 05:37:53;;;;;;;0.57;0.57;;;;;;;;;;5100231;27;93087;-64
2023/04/26 05:40:23;;;;;;;1.17;0.83;;;;;;;;;;5099573;27;92196;-65
2023/04/26 05:42:52;;;;;;;0.77;0.67;;;;;;;;;;5099619;27;94081;-64
2023/04/26 05:45:22;;;;;;;0.30;0.30;;;;;;;;;;5099860;27;93765;-64
2023/04/26 05:47:51;;;;;;;1.53;0.60;;;;;;;;;;5100262;27;93578;-64
2023/04/26 05:50:20;;;;;;;0.60;0.60;;;;;;;;;;5100590;27;91873;-64
2023/04/26 05:52:48;;;;;;;3.10;0.70;;;;;;;;;;5095594;27;94104;-64
2023/04/26 05:55:16;;;;;;;0.50;0.50;;;;;;;;;;5099997;27;93876;-65
2023/04/26 05:57:45;;;;;;;0.53;0.53;;;;;;;;;;5099993;27;92056;-64
2023/04/26 06:00:14;;;;;;;0.50;0.47;;;;;;;;;;5100228;27;92097;-64
2023/04/26 06:02:44;;;;;;;0.40;0.40;;;;;;;;;;5099057;27;95450;-64
2023/04/26 06:05:13;;;;;;;0.70;0.70;;;;;;;;;;5094819;27;94819;-64
2023/04/26 06:07:42;;;;;;;0.60;0.60;;;;;;;;;;5097354;27;92053;-64
2023/04/26 06:10:12;;;;;;;0.40;0.40;;;;;;;;;;5099790;27;92066;-64
2023/04/26 06:12:41;;;;;;;0.30;0.30;;;;;;;;;;5095438;27;94201;-64
2023/04/26 06:15:10;;;;;;;0.53;0.40;;;;;;;;;;5098692;27;94385;-64
2023/04/26 06:17:38;;;;;;;1.17;0.80;;;;;;;;;;5099953;27;93241;-64
2023/04/26 06:20:09;;;;;;;0.67;0.47;;;;;;;;;;5100288;27;91789;-64
2023/04/26 06:22:37;;;;;;;0.83;0.73;;;;;;;;;;5099750;27;94095;-65
2023/04/26 06:25:09;;;;;;;0.37;0.30;;;;;;;;;;5099309;27;93768;-65
2023/04/26 06:27:38;;;;;;;1.27;0.40;;;;;;;;;;5099187;27;93031;-64
2023/04/26 06:30:07;;;;;;;1.37;0.57;;;;;;;;;;5099570;27;93313;-65
2023/04/26 06:32:36;;;;;;;0.47;0.47;;;;;;;;;;5100331;27;93970;-64
2023/04/26 06:35:04;;;;;;;0.50;0.50;;;;;;;;;;5100608;27;93852;-64
2023/04/26 06:37:35;;;;;;;0.90;0.50;;;;;;;;;;5100994;27;92606;-65
2023/04/26 06:40:03;;;;;;;0.30;0.30;;;;;;;;;;5100241;27;92092;-64
2023/04/26 06:42:31;;;;;;;0.53;0.53;;;;;;;;;;5101015;27;97001;-64
2023/04/26 06:45:00;;;;;;;1.03;0.40;;;;;;;;;;5100988;27;93773;-64
2023/04/26 06:47:28;;;;;;;1.37;0.80;;;;;;;;;;5100392;27;91889;-64
2023/04/26 06:49:56;;;;;;;0.50;0.50;;;;;;;;;;5100389;27;92124;-66
2023/04/26 06:52:25;;;;;;;2.33;0.40;;;;;;;;;;5097422;27;95142;-64
2023/04/26 06:54:54;;;;;;;0.73;0.50;;;;;;;;;;5100282;27;94701;-64
2023/04/26 06:57:25;;;;;;;1.80;0.50;;;;;;;;;;5100358;27;91973;-66
2023/04/26 06:59:53;;;;;;;0.50;0.50;;;;;;;;;;5101150;27;92066;-65
2023/04/26 07:02:23;;;;;;;0.80;0.60;;;;;;;;;;5100457;27;94541;-65
2023/04/26 07:04:51;;;;;;;0.70;0.70;;;;;;;;;;5095366;27;93853;-64
2023/04/26 07:07:20;;;;;;;0.73;0.40;;;;;;;;;;5099724;27;92014;-66
2023/04/26 07:09:49;;;;;;;1.43;0.30;;;;;;;;;;5090421;27;91421;-66
2023/04/26 07:12:19;;;;;;;0.77;0.60;;;;;;;;;;5075919;27;94368;-66
2023/04/26 07:14:48;;;;;;;0.70;0.67;;;;;;;;;;5078284;27;93780;-66
2023/04/26 07:17:16;;;;;;;0.37;0.37;;;;;;;;;;5078827;27;93082;-66
2023/04/26 07:19:45;;;;;;;1.63;0.60;;;;;;;;;;5078373;27;92046;-66
2023/04/26 07:22:13;;;;;;;0.40;0.40;;;;;;;;;;5079052;27;93841;-66
2023/04/26 07:24:41;;;;;;;1.83;0.50;;;;;;;;;;5079742;27;94101;-63
2023/04/26 07:27:10;;;;;;;1.13;0.70;;;;;;;;;;5079476;27;92111;-64
2023/04/26 07:29:39;;;;;;;0.47;0.47;;;;;;;;;;5079452;27;92183;-64
2023/04/26 07:32:08;;;;;;;0.73;0.73;;;;;;;;;;5079002;27;94017;-64
2023/04/26 07:34:37;;;;;;;0.83;0.40;;;;;;;;;;5080832;27;92737;-64
2023/04/26 07:37:05;;;;;;;0.50;0.50;;;;;;;;;;5099875;27;92148;-64
2023/04/26 07:39:34;;;;;;;0.30;0.30;;;;;;;;;;5099285;27;92063;-64
2023/04/26 07:42:02;;;;;;;1.43;0.43;;;;;;;;;;5098916;27;95026;-64
2023/04/26 07:44:31;;;;;;;0.87;0.50;;;;;;;;;;5099576;27;93421;-64
2023/04/26 07:47:01;;;;;;;1.43;1.17;;;;;;;;;;5099818;27;91955;-64
2023/04/26 07:49:29;;;;;;;1.70;0.70;;;;;;;;;;5099892;27;92044;-65
2023/04/26 07:52:00;;;;;;;0.50;0.40;;;;;;;;;;5102188;27;94114;-64
2023/04/26 07:54:30;;;;;;;1.80;1.13;;;;;;;;;;5102980;27;93866;-64
2023/04/26 07:56:59;;;;;;;0.60;0.60;;;;;;;;;;5103832;27;91756;-64
2023/04/26 07:59:27;;;;;;;0.30;0.30;;;;;;;;;;5104093;27;91327;-64
2023/04/26 08:01:56;;;;;;;0.30;0.30;;;;;;;;;;5103210;27;94237;-64
2023/04/26 08:04:32;;;;;;;0.30;0.30;;;;;;;;;;5103665;27;94242;-64
2023/04/26 08:07:02;;;;;;;1.00;0.50;;;;;;;;;;5103102;27;93008;-64
2023/04/26 08:09:30;;;;;;;0.30;0.30;;;;;;;;;;5103521;27;92056;-64
2023/04/26 08:11:59;;;;;;;0.50;0.40;;;;;;;;;;5102891;27;94226;-64
2023/04/26 08:14:29;;;;;;;3.40;0.60;;;;;;;;;;5102571;27;92713;-64
2023/04/26 08:16:57;;;;;;;0.40;0.40;;;;;;;;;;5102936;27;91951;-64
2023/04/26 08:19:28;;;;;;;0.40;0.40;;;;;;;;;;5102796;27;92079;-64
2023/04/26 08:21:57;;;;;;;0.30;0.30;;;;;;;;;;5102865;27;93629;-64
2023/04/26 08:24:26;;;;;;;0.40;0.40;;;;;;;;;;5103459;27;95887;-64
2023/04/26 08:26:54;;;;;;;0.63;0.50;;;;;;;;;;5103048;27;92053;-64
2023/04/26 08:29:23;;;;;;;0.80;0.80;;;;;;;;;;5102360;27;91919;-64
2023/04/26 08:31:52;;;;;;;0.30;0.30;;;;;;;;;;5101760;27;95076;-64
2023/04/26 08:34:20;;;;;;;0.67;0.40;;;;;;;;;;5102007;27;94790;-64
2023/04/26 08:36:48;;;;;;;0.70;0.70;;;;;;;;;;5103130;27;92053;-64
2023/04/26 08:39:18;;;;;;;0.30;0.30;;;;;;;;;;5102799;27;92044;-64
2023/04/26 08:41:50;;;;;;;0.90;0.60;;;;;;;;;;5102853;27;94193;-64
2023/04/26 08:44:18;;;;;;;0.40;0.40;;;;;;;;;;5102240;27;94140;-64
2023/04/26 08:46:48;;;;;;;0.80;0.80;;;;;;;;;;5102852;27;92076;-64
2023/04/26 08:49:18;;;;;;;1.37;0.53;;;;;;;;;;5103028;27;91158;-64
2023/04/26 08:51:46;;;;;;;0.20;0.20;;;;;;;;;;5102088;27;94249;-64
2023/04/26 08:54:16;;;;;;;0.70;0.33;;;;;;;;;;5102276;27;93913;-64
2023/04/26 08:56:46;;;;;;;0.40;0.40;;;;;;;;;;5101982;27;93102;-64
2023/04/26 08:59:14;;;;;;;0.40;0.40;;;;;;;;;;5102623;27;92081;-64
2023/04/26 09:01:43;;;;;;;0.30;0.30;;;;;;;;;;5101737;27;94190;-64
2023/04/26 09:04:11;;;;;;;0.23;0.23;;;;;;;;;;5101467;27;93944;-65
2023/04/26 09:06:40;;;;;;;0.40;0.40;;;;;;;;;;5102438;27;92167;-64
2023/04/26 09:09:09;;;;;;;0.80;0.40;;;;;;;;;;5101786;27;92094;-64
2023/04/26 09:11:58;;;;;;;1.03;0.70;;;;;;;;;;5102212;27;94142;-64
2023/04/26 09:14:27;;;;;;;0.40;0.40;;;;;;;;;;5102965;27;92587;-64
2023/04/26 09:16:55;;;;;;;0.30;0.30;;;;;;;;;;5102441;27;91851;-64
2023/04/26 09:19:35;;;;;;;0.50;0.50;;;;;;;;;;5102056;27;91976;-63
2023/04/26 09:22:05;;;;;;;0.47;0.47;;;;;;;;;;5101936;27;95062;-64
2023/04/26 09:24:49;;;;;;;0.40;0.40;;;;;;;;;;5102163;27;93693;-64
2023/04/26 09:27:18;;;;;;;0.90;0.50;;;;;;;;;;5102139;27;91854;-64
2023/04/26 09:29:59;;;;;;;0.60;0.60;;;;;;;;;;5101481;27;92106;-66
2023/04/26 09:32:28;;;;;;;2.50;0.53;;;;;;;;;;5102154;27;93975;-66
2023/04/26 09:34:56;;;;;;;0.77;0.70;;;;;;;;;;5101796;27;93975;-66
2023/04/26 09:37:24;;;;;;;1.10;0.67;;;;;;;;;;5101774;27;92274;-66
2023/04/26 09:39:53;;;;;;;0.40;0.40;;;;;;;;;;5102326;27;91265;-66
2023/04/26 09:42:22;;;;;;;0.50;0.50;;;;;;;;;;5101603;27;94164;-64
2023/04/26 09:44:53;;;;;;;0.60;0.40;;;;;;;;;;5101877;27;93866;-64
2023/04/26 09:47:22;;;;;;;0.50;0.50;;;;;;;;;;5102084;27;93046;-63
2023/04/26 09:49:51;;;;;;;0.30;0.30;;;;;;;;;;5101667;27;92432;-64
2023/04/26 09:52:19;;;;;;;0.53;0.40;;;;;;;;;;5101003;27;94214;-64
2023/04/26 09:54:48;;;;;;;0.60;0.60;;;;;;;;;;5101181;27;93969;-64
2023/04/26 09:57:18;;;;;;;0.40;0.40;;;;;;;;;;5101356;27;91983;-64
2023/04/26 09:59:48;;;;;;;0.33;0.33;;;;;;;;;;5101659;27;92223;-64
2023/04/26 10:02:17;;;;;;;0.30;0.30;;;;;;;;;;5100824;27;93985;-64
2023/04/26 10:04:46;;;;;;;0.40;0.40;;;;;;;;;;5100978;27;94170;-64
2023/04/26 10:07:15;;;;;;;0.53;0.40;;;;;;;;;;5101175;27;92025;-64
2023/04/26 10:09:43;;;;;;;0.40;0.40;;;;;;;;;;5101195;27;92028;-64
2023/04/26 10:12:12;;;;;;;0.40;0.40;;;;;;;;;;5100653;27;95354;-64
2023/04/26 10:14:40;;;;;;;0.50;0.50;;;;;;;;;;5100913;27;94830;-64
2023/04/26 10:17:10;;;;;;;0.40;0.40;;;;;;;;;;5101330;27;92079;-64
2023/04/26 10:19:39;;;;;;;0.73;0.43;;;;;;;;;;5101277;27;91954;-64
2023/04/26 10:22:09;;;;;;;1.00;0.70;;;;;;;;;;5101083;27;94184;-64
2023/04/26 10:24:37;;;;;;;0.50;0.50;;;;;;;;;;5100370;27;93984;-66
2023/04/26 10:27:05;;;;;;;0.30;0.30;;;;;;;;;;5101264;27;92087;-64
2023/04/26 10:29:52;;;;;;;0.47;0.40;;;;;;;;;;5101692;27;91180;-64
2023/04/26 10:32:22;;;;;;;0.57;0.57;;;;;;;;;;5101127;27;94280;-66
2023/04/26 10:35:05;;;;;;;0.40;0.40;;;;;;;;;;5100897;27;93865;-64
2023/04/26 10:37:34;;;;;;;0.40;0.40;;;;;;;;;;5100185;27;92913;-64
2023/04/26 10:40:17;;;;;;;0.57;0.50;;;;;;;;;;5101382;27;92028;-64
2023/04/26 10:42:46;;;;;;;0.57;0.43;;;;;;;;;;5100572;27;94139;-64
2023/04/26 10:45:26;;;;;;;0.60;0.40;;;;;;;;;;5100611;27;93899;-64
2023/04/26 10:48:08;;;;;;;0.40;0.40;;;;;;;;;;5100821;27;91957;-64
2023/04/26 10:50:37;;;;;;;0.20;0.20;;;;;;;;;;5100706;27;92036;-64
2023/04/26 10:53:06;;;;;;;0.37;0.37;;;;;;;;;;5100075;27;94503;-64
2023/04/26 10:55:39;;;;;;;0.57;0.50;;;;;;;;;;5100721;27;94123;-66
2023/04/26 10:58:22;;;;;;;0.30;0.30;;;;;;;;;;5100891;27;92142;-64
2023/04/26 11:01:04;;;;;;;0.63;0.63;;;;;;;;;;5100808;27;92051;-64
2023/04/26 11:03:34;;;;;;;1.13;0.43;;;;;;;;;;5099744;27;94894;-64
2023/04/26 11:06:06;;;;;;;3.47;0.40;;;;;;;;;;5099954;27;94949;-66
2023/04/26 11:08:35;;;;;;;0.40;0.40;;;;;;;;;;5100518;27;92151;-64
2023/04/26 11:11:08;;;;;;;0.40;0.40;;;;;;;;;;5100926;27;92010;-64
2023/04/26 11:13:37;;;;;;;0.30;0.30;;;;;;;;;;5099484;27;94092;-65
2023/04/26 11:16:06;;;;;;;0.30;0.30;;;;;;;;;;5100126;27;94245;-64
2023/04/26 11:18:36;;;;;;;0.50;0.50;;;;;;;;;;5100805;27;92092;-64
2023/04/26 11:21:05;;;;;;;0.50;0.50;;;;;;;;;;5100606;27;91275;-64
2023/04/26 11:23:35;;;;;;;0.50;0.50;;;;;;;;;;5100440;27;94171;-64
2023/04/26 11:26:04;;;;;;;0.40;0.40;;;;;;;;;;5101795;27;93843;-66
2023/04/26 11:28:32;;;;;;;0.30;0.30;;;;;;;;;;5103485;27;92971;-66
2023/04/26 11:31:02;;;;;;;0.50;0.50;;;;;;;;;;5103863;27;92169;-66
2023/04/26 11:33:32;;;;;;;0.40;0.40;;;;;;;;;;5103321;27;94371;-66
2023/04/26 11:36:02;;;;;;;0.80;0.50;;;;;;;;;;5102802;27;94085;-66
2023/04/26 11:38:31;;;;;;;0.30;0.30;;;;;;;;;;5103612;27;92024;-65
2023/04/26 11:40:59;;;;;;;0.50;0.50;;;;;;;;;;5104135;27;92156;-66
2023/04/26 11:43:31;;;;;;;0.60;0.50;;;;;;;;;;5103641;27;94084;-66
2023/04/26 11:46:00;;;;;;;0.40;0.40;;;;;;;;;;5103533;27;93887;-66
2023/04/26 11:48:28;;;;;;;0.40;0.40;;;;;;;;;;5103692;27;92069;-66
2023/04/26 11:50:57;;;;;;;0.57;0.30;;;;;;;;;;5103244;27;92127;-66
2023/04/26 11:53:29;;;;;;;0.50;0.50;;;;;;;;;;5101991;27;93926;-66
2023/04/26 11:55:57;;;;;;;1.33;0.63;;;;;;;;;;5102916;27;94512;-66
2023/04/26 11:58:26;;;;;;;0.50;0.40;;;;;;;;;;5103192;27;92619;-66
2023/04/26 12:00:58;;;;;;;0.40;0.40;;;;;;;;;;5103366;27;92016;-66
2023/04/26 12:03:30;;;;;;;0.40;0.40;;;;;;;;;;5103342;27;94103;-66
2023/04/26 12:05:59;;;;;;;0.80;0.50;;;;;;;;;;5102834;27;93916;-66
2023/04/26 12:08:28;;;;;;;1.10;0.70;;;;;;;;;;5103261;27;91952;-66
2023/04/26 12:10:59;;;;;;;0.80;0.77;;;;;;;;;;5103730;27;91249;-66
2023/04/26 12:13:28;;;;;;;0.97;0.80;;;;;;;;;;5102691;27;94282;-66
2023/04/26 12:15:57;;;;;;;0.40;0.30;;;;;;;;;;5102771;27;93990;-66
2023/04/26 12:18:31;;;;;;;1.70;0.97;;;;;;;;;;5102785;27;92839;-66
2023/04/26 12:20:59;;;;;;;1.33;1.23;;;;;;;;;;5102855;27;92056;-66
2023/04/26 12:23:36;;;;;;;6.50;0.90;;;;;;;;;;5102393;27;94222;-65
2023/04/26 12:26:05;;;;;;;5.23;0.93;;;;;;;;;;5102950;27;92180;-66
2023/04/26 12:28:33;;;;;;;3.40;1.73;;;;;;;;;;5102802;27;92170;-66
2023/04/26 12:31:03;;;;;;;4.87;0.37;;;;;;;;;;5102911;27;92052;-66
2023/04/26 12:33:31;;;;;;;5.93;1.00;;;;;;;;;;5102873;27;94091;-66
2023/04/26 12:36:06;;;;;;;3.47;1.00;;;;;;;;;;5102557;27;93843;-66
2023/04/26 12:38:36;;;;;;;3.60;1.33;;;;;;;;;;5103959;27;92022;-66
2023/04/26 12:41:04;;;;;;;3.47;1.07;;;;;;;;;;5103139;27;91997;-66
2023/04/26 12:43:33;;;;;;;2.17;1.07;;;;;;;;;;5102035;27;94996;-66
2023/04/26 12:46:01;;;;;;;6.33;1.17;;;;;;;;;;5102035;27;94770;-66
2023/04/26 12:48:30;;;;;;;1.63;0.90;;;;;;;;;;5103099;27;92166;-66
2023/04/26 12:50:59;;;;;;;2.47;1.27;;;;;;;;;;5102759;27;92101;-66
2023/04/26 12:53:27;;;;;;;5.00;1.27;;;;;;;;;;5102244;27;94016;-66
2023/04/26 12:55:57;;;;;;;2.27;0.93;;;;;;;;;;5102638;27;93335;-65
2023/04/26 12:58:27;;;;;;;6.63;1.37;;;;;;;;;;5102303;27;92340;-66
2023/04/26 13:00:55;;;;;;;13.00;2.13;;;;;;;;;;5103152;27;91286;-66
2023/04/26 13:03:24;;;;;;;9.33;1.03;;;;;;;;;;5101985;27;94186;-66
2023/04/26 13:05:52;;;;;;;18.87;1.47;;;;;;;;;;5101832;27;93900;-66
2023/04/26 13:08:21;;;;;;;3.57;0.87;;;;;;;;;;5102064;27;93043;-66
2023/04/26 13:10:50;;;;;;;7.57;1.30;;;;;;;;;;5102393;27;92555;-66
2023/04/26 13:13:19;;;;;;;12.80;2.37;;;;;;;;;;5102385;27;94411;-66
2023/04/26 13:15:59;;;;;;;1.70;1.10;;;;;;;;;;5101713;27;93937;-66
2023/04/26 13:18:28;;;;;;;8.83;1.53;;;;;;;;;;5102890;27;92264;-66
2023/04/26 13:20:56;;;;;;;5.40;1.03;;;;;;;;;;5102288;27;92058;-66
2023/04/26 13:23:25;;;;;;;14.50;1.77;;;;;;;;;;5101673;27;92718;-66
2023/04/26 13:25:53;;;;;;;3.03;1.27;;;;;;;;;;5102052;27;93909;-66
2023/04/26 13:28:23;;;;;;;4.27;1.80;;;;;;;;;;5101889;27;92464;-66
2023/04/26 13:30:52;;;;;;;2.50;1.03;;;;;;;;;;5102344;27;91865;-66
2023/04/26 13:33:20;;;;;;;4.00;1.27;;;;;;;;;;5101084;27;94698;-66
2023/04/26 13:35:48;;;;;;;4.00;1.43;;;;;;;;;;5101417;27;94928;-66
2023/04/26 13:38:17;;;;;;;1.87;0.80;;;;;;;;;;5101858;27;92003;-64
2023/04/26 13:40:46;;;;;;;3.23;1.40;;;;;;;;;;5102153;27;91899;-64
2023/04/26 13:43:14;;;;;;;1.57;0.70;;;;;;;;;;5101021;27;94167;-64
2023/04/26 13:45:44;;;;;;;3.63;0.97;;;;;;;;;;5100995;27;93786;-64
2023/04/26 13:48:12;;;;;;;1.63;0.77;;;;;;;;;;5101276;27;92048;-65
2023/04/26 13:50:41;;;;;;;2.77;0.90;;;;;;;;;;5102355;27;91176;-64
2023/04/26 13:53:10;;;;;;;4.80;1.00;;;;;;;;;;5101245;27;94066;-64
2023/04/26 13:55:38;;;;;;;5.30;1.33;;;;;;;;;;5101510;27;93812;-65
2023/04/26 13:58:07;;;;;;;0.57;0.57;;;;;;;;;;5100881;27;93001;-64
2023/04/26 14:00:35;;;;;;;2.63;0.80;;;;;;;;;;5101396;27;92056;-65
2023/04/26 14:03:05;;;;;;;0.50;0.40;;;;;;;;;;5101373;27;94086;-64
2023/04/26 14:05:34;;;;;;;3.13;1.07;;;;;;;;;;5101720;27;92745;-66
2023/04/26 14:08:03;;;;;;;2.60;0.73;;;;;;;;;;5101497;27;91773;-66
2023/04/26 14:10:31;;;;;;;3.40;0.53;;;;;;;;;;5101055;27;92044;-66
2023/04/26 14:13:00;;;;;;;1.30;0.70;;;;;;;;;;5101197;27;94210;-66
2023/04/26 14:15:28;;;;;;;5.37;1.07;;;;;;;;;;5100917;27;93867;-64
2023/04/26 14:17:57;;;;;;;1.43;0.80;;;;;;;;;;5101598;27;93308;-66
2023/04/26 14:20:27;;;;;;;2.77;0.67;;;;;;;;;;5101285;27;91937;-64
2023/04/26 14:22:55;;;;;;;2.73;0.63;;;;;;;;;;5100063;27;93795;-64
2023/04/26 14:25:24;;;;;;;8.43;1.00;;;;;;;;;;5100809;27;95188;-64
2023/04/26 14:27:53;;;;;;;2.07;0.53;;;;;;;;;;5101604;27;92083;-65
2023/04/26 14:30:23;;;;;;;1.20;1.03;;;;;;;;;;5100726;27;92067;-66
2023/04/26 14:32:51;;;;;;;0.90;0.77;;;;;;;;;;5100803;27;94214;-65
2023/04/26 14:35:20;;;;;;;0.60;0.60;;;;;;;;;;5100699;27;93902;-65
2023/04/26 14:37:49;;;;;;;0.70;0.50;;;;;;;;;;5100077;27;92020;-65
2023/04/26 14:40:18;;;;;;;1.30;0.60;;;;;;;;;;5101272;27;91073;-65
2023/04/26 14:42:46;;;;;;;0.50;0.47;;;;;;;;;;5100255;27;97067;-65
2023/04/26 14:45:15;;;;;;;1.00;0.70;;;;;;;;;;5101294;27;93882;-65
2023/04/26 14:47:43;;;;;;;1.03;0.70;;;;;;;;;;5101564;27;92977;-65
2023/04/26 14:50:12;;;;;;;0.20;0.20;;;;;;;;;;5100768;27;92074;-66
2023/04/26 14:52:41;;;;;;;1.47;0.50;;;;;;;;;;5099982;27;94087;-66
2023/04/26 14:55:11;;;;;;;0.70;0.47;;;;;;;;;;5100540;27;93919;-66